createdAt,value
2022-09-23T00:00:51.874Z,6.10
2022-09-23T00:01:51.914Z,5.70
2022-09-23T00:02:51.881Z,5.50
2022-09-23T00:03:51.835Z,6.60
2022-09-23T00:04:52.764Z,6.40
2022-09-23T00:05:52.762Z,5.80
2022-09-23T00:06:52.762Z,6.40
2022-09-23T00:07:52.733Z,6.90
2022-09-23T00:08:52.604Z,6.70
2022-09-23T00:09:52.702Z,6.20
2022-09-23T00:10:52.685Z,6.40
2022-09-23T00:11:51.735Z,6.80
2022-09-23T00:12:51.708Z,6.70
2022-09-23T00:13:51.695Z,5.60
2022-09-23T00:14:51.675Z,5.70
2022-09-23T00:15:51.666Z,6.70
2022-09-23T00:16:51.693Z,6.40
2022-09-23T00:17:51.646Z,7.20
2022-09-23T00:18:51.630Z,6.60
2022-09-23T00:19:51.617Z,6.20
2022-09-23T00:20:51.597Z,6.70
2022-09-23T00:21:51.600Z,7.00
2022-09-23T00:22:51.578Z,6.70
2022-09-23T00:23:51.568Z,6.90
2022-09-23T00:24:51.547Z,6.50
2022-09-23T00:25:52.506Z,6.80
2022-09-23T00:26:51.519Z,6.80
2022-09-23T00:27:51.508Z,6.90
2022-09-23T00:28:51.498Z,6.70
2022-09-23T00:29:51.489Z,6.90
2022-09-23T00:30:53.495Z,6.80
2022-09-23T00:31:51.459Z,7.60
2022-09-23T00:32:51.450Z,7.00
2022-09-23T00:33:52.387Z,7.60
2022-09-23T00:34:51.419Z,7.20
2022-09-23T00:35:52.378Z,6.70
2022-09-23T00:36:51.389Z,8.10
2022-09-23T00:37:51.390Z,7.80
2022-09-23T00:38:52.162Z,8.00
2022-09-23T00:39:51.352Z,7.50
2022-09-23T00:40:51.419Z,7.90
2022-09-23T00:41:51.331Z,7.70
2022-09-23T00:42:51.314Z,8.30
2022-09-23T00:43:51.307Z,8.90
2022-09-23T00:44:51.293Z,7.90
2022-09-23T00:45:51.334Z,8.40
2022-09-23T00:46:51.262Z,9.80
2022-09-23T00:47:51.260Z,8.60
2022-09-23T00:48:51.232Z,8.70
2022-09-23T00:49:51.232Z,7.90
2022-09-23T00:50:51.203Z,8.30
2022-09-23T00:51:51.193Z,8.10
2022-09-23T00:52:51.184Z,8.70
2022-09-23T00:53:51.176Z,7.50
2022-09-23T00:54:52.103Z,8.60
2022-09-23T00:55:51.144Z,8.10
2022-09-23T00:56:51.123Z,8.50
2022-09-23T00:57:52.073Z,8.70
2022-09-23T00:58:51.095Z,9.30
2022-09-23T00:59:51.103Z,8.80
2022-09-23T01:00:51.152Z,8.70
2022-09-23T01:01:51.065Z,6.90
2022-09-23T01:02:51.091Z,8.50
2022-09-23T01:03:51.045Z,7.90
2022-09-23T01:04:51.036Z,8.30
2022-09-23T01:05:51.006Z,8.60
2022-09-23T01:06:50.987Z,8.70
2022-09-23T01:07:50.981Z,8.10
2022-09-23T01:08:50.966Z,9.70
2022-09-23T01:09:50.969Z,9.10
2022-09-23T01:10:50.936Z,9.50
2022-09-23T01:11:50.927Z,8.90
2022-09-23T01:12:50.910Z,9.10
2022-09-23T01:13:50.899Z,9.90
2022-09-23T01:14:50.895Z,10.00
2022-09-23T01:15:50.868Z,8.90
2022-09-23T01:16:50.951Z,10.20
2022-09-23T01:17:50.839Z,12.20
2022-09-23T01:18:50.828Z,10.80
2022-09-23T01:19:50.819Z,10.90
2022-09-23T01:20:50.800Z,10.00
2022-09-23T01:21:50.788Z,9.60
2022-09-23T01:22:51.728Z,9.70
2022-09-23T01:23:50.760Z,9.60
2022-09-23T01:24:50.762Z,9.60
2022-09-23T01:25:50.739Z,10.00
2022-09-23T01:26:50.720Z,9.30
2022-09-23T01:27:51.758Z,9.40
2022-09-23T01:28:50.690Z,9.20
2022-09-23T01:29:51.647Z,9.80
2022-09-23T01:30:50.712Z,9.60
2022-09-23T01:31:50.651Z,8.90
2022-09-23T01:32:50.640Z,10.10
2022-09-23T01:33:50.620Z,8.70
2022-09-23T01:34:50.623Z,9.30
2022-09-23T01:35:50.593Z,9.70
2022-09-23T01:36:50.589Z,9.50
2022-09-23T01:37:50.582Z,9.80
2022-09-23T01:38:50.563Z,10.30
2022-09-23T01:39:50.553Z,9.50
2022-09-23T01:40:50.590Z,9.50
2022-09-23T01:41:50.522Z,10.20
2022-09-23T01:42:50.506Z,9.00
2022-09-23T01:43:50.492Z,9.20
2022-09-23T01:44:50.493Z,9.80
2022-09-23T01:45:50.473Z,9.90
2022-09-23T01:46:50.465Z,9.50
2022-09-23T01:47:50.470Z,9.50
2022-09-23T01:48:50.434Z,9.20
2022-09-23T01:49:50.424Z,9.90
2022-09-23T01:50:50.409Z,10.20
2022-09-23T01:51:50.394Z,9.60
2022-09-23T01:52:51.326Z,9.10
2022-09-23T01:53:50.364Z,10.10
2022-09-23T01:54:51.316Z,9.90
2022-09-23T01:55:50.334Z,10.20
2022-09-23T01:56:50.329Z,9.50
2022-09-23T01:57:50.305Z,10.40
2022-09-23T01:58:50.296Z,11.00
2022-09-23T01:59:50.285Z,10.60
2022-09-23T02:00:50.307Z,10.50
2022-09-23T02:01:50.253Z,9.70
2022-09-23T02:02:50.280Z,10.30
2022-09-23T02:03:50.229Z,9.90
2022-09-23T02:04:50.226Z,10.90
2022-09-23T02:05:50.206Z,10.20
2022-09-23T02:06:50.187Z,10.40
2022-09-23T02:07:50.177Z,11.00
2022-09-23T02:08:50.172Z,10.00
2022-09-23T02:09:50.157Z,10.50
2022-09-23T02:10:50.137Z,9.70
2022-09-23T02:11:50.118Z,9.60
2022-09-23T02:12:50.108Z,10.60
2022-09-23T02:13:51.048Z,9.50
2022-09-23T02:14:50.088Z,9.90
2022-09-23T02:15:50.070Z,10.30
2022-09-23T02:16:50.183Z,11.10
2022-09-23T02:17:50.088Z,9.90
2022-09-23T02:18:50.040Z,10.30
2022-09-23T02:19:50.969Z,10.40
2022-09-23T02:20:50.012Z,10.40
2022-09-23T02:21:50.850Z,9.80
2022-09-23T02:22:49.979Z,10.30
2022-09-23T02:23:49.969Z,9.30
2022-09-23T02:24:50.600Z,10.60
2022-09-23T02:25:49.933Z,10.20
2022-09-23T02:26:49.931Z,10.40
2022-09-23T02:27:49.911Z,10.10
2022-09-23T02:28:49.967Z,10.50
2022-09-23T02:29:49.880Z,9.80
2022-09-23T02:30:49.881Z,10.80
2022-09-23T02:31:50.082Z,10.40
2022-09-23T02:32:50.383Z,9.90
2022-09-23T02:33:50.233Z,10.40
2022-09-23T02:34:49.823Z,10.40
2022-09-23T02:35:49.802Z,10.00
2022-09-23T02:36:49.791Z,10.50
2022-09-23T02:37:52.168Z,11.90
2022-09-23T02:38:50.493Z,10.80
2022-09-23T02:39:49.753Z,11.30
2022-09-23T02:40:53.338Z,10.50
2022-09-23T02:41:52.592Z,11.70
2022-09-23T02:42:52.934Z,11.20
2022-09-23T02:43:49.703Z,11.30
2022-09-23T02:44:50.553Z,11.90
2022-09-23T02:45:50.392Z,12.10
2022-09-23T02:46:49.664Z,11.50
2022-09-23T02:47:49.656Z,10.60
2022-09-23T02:48:51.404Z,10.90
2022-09-23T02:49:51.324Z,10.90
2022-09-23T02:50:49.634Z,11.80
2022-09-23T02:51:50.012Z,11.20
2022-09-23T02:52:49.586Z,10.30
2022-09-23T02:53:50.783Z,10.30
2022-09-23T02:54:50.646Z,9.70
2022-09-23T02:55:50.505Z,10.40
2022-09-23T02:56:49.848Z,10.60
2022-09-23T02:57:49.526Z,10.30
2022-09-23T02:58:52.677Z,10.60
2022-09-23T02:59:56.335Z,10.30
2022-09-23T03:00:53.016Z,10.00
2022-09-23T03:01:50.822Z,10.40
2022-09-23T03:02:53.246Z,11.20
2022-09-23T03:03:51.067Z,10.50
2022-09-23T03:04:50.431Z,10.60
2022-09-23T03:05:52.377Z,10.80
2022-09-23T03:06:56.907Z,10.40
2022-09-23T03:07:55.244Z,10.80
2022-09-23T03:08:55.108Z,11.10
2022-09-23T03:09:52.404Z,11.30
2022-09-23T03:10:57.929Z,11.80
2022-09-23T03:11:56.269Z,11.10
2022-09-23T03:12:49.948Z,11.30
2022-09-23T03:13:52.409Z,11.70
2022-09-23T03:14:58.500Z,11.00
2022-09-23T03:15:56.820Z,11.70
2022-09-23T03:16:55.205Z,12.00
2022-09-23T03:17:49.349Z,11.50
2022-09-23T03:18:53.860Z,11.20
2022-09-23T03:19:50.130Z,11.30
2022-09-23T03:20:52.020Z,12.40
2022-09-23T03:21:49.821Z,11.40
2022-09-23T03:22:54.352Z,11.30
2022-09-23T03:23:49.170Z,12.50
2022-09-23T03:24:53.843Z,12.40
2022-09-23T03:25:51.901Z,12.00
2022-09-23T03:27:00.547Z,11.30
2022-09-23T03:27:49.132Z,11.00
2022-09-23T03:28:50.460Z,10.70
2022-09-23T03:29:49.095Z,11.20
2022-09-23T03:30:49.642Z,11.80
2022-09-23T03:31:50.598Z,12.80
2022-09-23T03:32:55.025Z,13.10
2022-09-23T03:33:49.212Z,12.70
2022-09-23T03:34:51.143Z,12.50
2022-09-23T03:35:50.484Z,11.30
2022-09-23T03:36:51.894Z,11.70
2022-09-23T03:37:49.134Z,12.10
2022-09-23T03:38:50.481Z,10.90
2022-09-23T03:39:50.861Z,11.30
2022-09-23T03:40:49.938Z,11.30
2022-09-23T03:41:48.952Z,11.50
2022-09-23T03:42:49.493Z,12.10
2022-09-23T03:43:49.384Z,10.90
2022-09-23T03:44:48.895Z,11.80
2022-09-23T03:45:49.153Z,11.50
2022-09-23T03:46:48.985Z,10.40
2022-09-23T03:47:48.855Z,10.80
2022-09-23T03:48:48.835Z,9.80
2022-09-23T03:49:48.826Z,10.30
2022-09-23T03:50:48.816Z,10.90
2022-09-23T03:51:48.806Z,10.30
2022-09-23T03:52:48.786Z,9.70
2022-09-23T03:53:49.135Z,10.60
2022-09-23T03:54:48.768Z,10.70
2022-09-23T03:55:48.746Z,9.30
2022-09-23T03:56:48.747Z,10.00
2022-09-23T03:57:48.717Z,10.10
2022-09-23T03:58:48.706Z,10.40
2022-09-23T03:59:48.697Z,11.80
2022-09-23T04:00:48.743Z,9.90
2022-09-23T04:01:48.701Z,11.20
2022-09-23T04:02:48.657Z,10.40
2022-09-23T04:03:48.647Z,11.00
2022-09-23T04:04:48.650Z,10.80
2022-09-23T04:05:48.630Z,11.00
2022-09-23T04:06:48.598Z,10.40
2022-09-23T04:07:48.589Z,10.50
2022-09-23T04:08:48.568Z,10.20
2022-09-23T04:09:48.569Z,9.60
2022-09-23T04:10:51.754Z,9.90
2022-09-23T04:11:49.539Z,10.10
2022-09-23T04:12:48.524Z,10.40
2022-09-23T04:13:48.509Z,9.80
2022-09-23T04:14:48.499Z,9.80
2022-09-23T04:15:48.490Z,9.20
2022-09-23T04:16:48.539Z,9.20
2022-09-23T04:17:48.460Z,8.70
2022-09-23T04:18:48.450Z,8.30
2022-09-23T04:19:48.430Z,8.90
2022-09-23T04:20:48.432Z,8.30
2022-09-23T04:21:48.403Z,8.40
2022-09-23T04:22:49.331Z,8.20
2022-09-23T04:23:48.381Z,8.30
2022-09-23T04:24:48.361Z,8.80
2022-09-23T04:25:48.362Z,8.50
2022-09-23T04:26:48.332Z,8.80
2022-09-23T04:27:48.331Z,9.20
2022-09-23T04:28:49.262Z,8.80
2022-09-23T04:29:49.253Z,8.80
2022-09-23T04:30:48.302Z,9.10
2022-09-23T04:31:48.346Z,8.60
2022-09-23T04:32:48.260Z,8.50
2022-09-23T04:33:48.242Z,8.10
2022-09-23T04:34:48.232Z,7.90
2022-09-23T04:35:48.234Z,8.40
2022-09-23T04:36:48.205Z,8.60
2022-09-23T04:37:48.202Z,8.60
2022-09-23T04:38:48.174Z,8.10
2022-09-23T04:39:48.187Z,8.20
2022-09-23T04:40:48.217Z,8.30
2022-09-23T04:41:48.145Z,8.50
2022-09-23T04:42:48.124Z,7.90
2022-09-23T04:43:48.114Z,7.80
2022-09-23T04:44:48.112Z,8.00
2022-09-23T04:45:48.095Z,9.30
2022-09-23T04:46:48.318Z,8.30
2022-09-23T04:47:48.066Z,8.60
2022-09-23T04:48:48.046Z,8.70
2022-09-23T04:49:48.050Z,8.50
2022-09-23T04:50:48.024Z,8.80
2022-09-23T04:51:48.020Z,8.40
2022-09-23T04:52:47.996Z,8.60
2022-09-23T04:53:47.993Z,8.80
2022-09-23T04:54:47.987Z,8.30
2022-09-23T04:55:47.967Z,9.00
2022-09-23T04:56:47.947Z,8.20
2022-09-23T04:57:47.947Z,8.20
2022-09-23T04:58:47.916Z,8.10
2022-09-23T04:59:47.917Z,8.90
2022-09-23T05:00:47.905Z,8.60
2022-09-23T05:01:47.970Z,8.40
2022-09-23T05:02:47.884Z,8.20
2022-09-23T05:03:47.858Z,9.60
2022-09-23T05:04:47.849Z,8.90
2022-09-23T05:05:47.831Z,9.00
2022-09-23T05:06:47.810Z,8.30
2022-09-23T05:07:47.806Z,9.10
2022-09-23T05:08:47.779Z,8.90
2022-09-23T05:09:47.792Z,9.00
2022-09-23T05:10:47.760Z,8.60
2022-09-23T05:11:47.756Z,8.90
2022-09-23T05:12:47.731Z,8.80
2022-09-23T05:13:48.686Z,9.00
2022-09-23T05:14:47.920Z,9.00
2022-09-23T05:15:48.694Z,9.00
2022-09-23T05:16:47.692Z,9.00
2022-09-23T05:17:47.670Z,8.80
2022-09-23T05:18:47.658Z,8.30
2022-09-23T05:19:48.601Z,8.30
2022-09-23T05:20:47.631Z,8.00
2022-09-23T05:21:48.423Z,8.20
2022-09-23T05:22:47.601Z,8.10
2022-09-23T05:23:47.601Z,8.30
2022-09-23T05:24:47.592Z,8.50
2022-09-23T05:25:47.577Z,7.50
2022-09-23T05:26:47.552Z,8.40
2022-09-23T05:27:47.552Z,8.20
2022-09-23T05:28:47.522Z,8.60
2022-09-23T05:29:47.530Z,8.70
2022-09-23T05:30:47.501Z,8.20
2022-09-23T05:31:47.529Z,8.10
2022-09-23T05:32:47.474Z,8.90
2022-09-23T05:33:47.464Z,7.90
2022-09-23T05:34:47.462Z,7.40
2022-09-23T05:35:47.433Z,7.50
2022-09-23T05:36:47.423Z,8.30
2022-09-23T05:37:47.404Z,8.50
2022-09-23T05:38:47.394Z,9.30
2022-09-23T05:39:47.395Z,9.10
2022-09-23T05:40:47.475Z,9.00
2022-09-23T05:41:47.355Z,8.40
2022-09-23T05:42:47.343Z,10.00
2022-09-23T05:43:47.419Z,8.80
2022-09-23T05:44:47.324Z,9.00
2022-09-23T05:45:47.311Z,8.10
2022-09-23T05:46:48.339Z,7.80
2022-09-23T05:47:47.278Z,8.00
2022-09-23T05:48:48.226Z,8.00
2022-09-23T05:49:59.537Z,8.50
2022-09-23T05:50:48.237Z,7.30
2022-09-23T05:51:47.226Z,7.70
2022-09-23T05:52:47.216Z,7.60
2022-09-23T05:53:47.220Z,7.60
2022-09-23T05:54:47.187Z,8.00
2022-09-23T05:55:47.167Z,7.70
2022-09-23T05:56:47.155Z,7.20
2022-09-23T05:57:47.142Z,7.60
2022-09-23T05:58:47.127Z,7.80
2022-09-23T05:59:47.118Z,7.90
2022-09-23T06:00:47.098Z,7.40
2022-09-23T06:01:47.149Z,7.90
2022-09-23T06:02:47.139Z,7.90
2022-09-23T06:03:47.068Z,7.80
2022-09-23T06:04:47.039Z,7.90
2022-09-23T06:05:47.029Z,8.20
2022-09-23T06:06:47.020Z,8.40
2022-09-23T06:07:47.008Z,8.50
2022-09-23T06:08:46.998Z,8.80
2022-09-23T06:09:46.976Z,8.00
2022-09-23T06:10:48.741Z,8.50
2022-09-23T06:11:47.954Z,8.10
2022-09-23T06:12:46.941Z,7.80
2022-09-23T06:13:47.884Z,8.80
2022-09-23T06:14:46.911Z,7.70
2022-09-23T06:15:47.913Z,8.20
2022-09-23T06:16:46.885Z,7.70
2022-09-23T06:17:46.871Z,7.70
2022-09-23T06:18:46.873Z,7.90
2022-09-23T06:19:46.841Z,7.90
2022-09-23T06:20:46.822Z,7.70
2022-09-23T06:21:46.812Z,7.90
2022-09-23T06:22:48.446Z,8.20
2022-09-23T06:23:46.800Z,7.60
2022-09-23T06:24:46.770Z,9.30
2022-09-23T06:25:46.763Z,8.00
2022-09-23T06:26:46.768Z,7.90
2022-09-23T06:27:46.733Z,7.60
2022-09-23T06:28:46.733Z,8.80
2022-09-23T06:29:46.703Z,8.90
2022-09-23T06:30:46.694Z,8.10
2022-09-23T06:31:46.713Z,8.70
2022-09-23T06:32:46.664Z,8.30
2022-09-23T06:33:46.665Z,7.50
2022-09-23T06:34:51.707Z,8.20
2022-09-23T06:35:58.185Z,7.70
2022-09-23T06:36:47.605Z,7.90
2022-09-23T06:37:46.605Z,8.90
2022-09-23T06:38:47.536Z,7.70
2022-09-23T06:39:46.575Z,7.00
2022-09-23T06:40:47.411Z,7.40
2022-09-23T06:41:46.546Z,7.20
2022-09-23T06:42:51.474Z,7.20
2022-09-23T06:43:47.525Z,7.30
2022-09-23T06:44:46.499Z,7.50
2022-09-23T06:45:46.512Z,7.70
2022-09-23T06:46:46.557Z,8.30
2022-09-23T06:47:46.467Z,7.50
2022-09-23T06:48:46.556Z,8.30
2022-09-23T06:49:46.431Z,7.40
2022-09-23T06:50:46.418Z,7.50
2022-09-23T06:51:46.411Z,7.40
2022-09-23T06:52:46.398Z,8.30
2022-09-23T06:53:46.385Z,8.30
2022-09-23T06:54:46.368Z,7.60
2022-09-23T06:55:46.358Z,7.10
2022-09-23T06:56:46.340Z,7.10
2022-09-23T06:57:46.339Z,7.40
2022-09-23T06:58:47.264Z,7.30
2022-09-23T06:59:46.300Z,7.20
2022-09-23T07:00:46.279Z,6.70
2022-09-23T07:01:46.328Z,7.30
2022-09-23T07:02:46.407Z,7.30
2022-09-23T07:03:47.203Z,7.80
2022-09-23T07:04:47.180Z,6.60
2022-09-23T07:05:47.161Z,7.10
2022-09-23T07:06:46.201Z,6.70
2022-09-23T07:07:46.191Z,6.90
2022-09-23T07:08:46.171Z,7.10
2022-09-23T07:09:46.163Z,6.90
2022-09-23T07:10:46.152Z,6.50
2022-09-23T07:11:46.134Z,6.90
2022-09-23T07:12:46.132Z,6.40
2022-09-23T07:13:46.106Z,6.10
2022-09-23T07:14:46.202Z,6.70
2022-09-23T07:15:46.141Z,6.00
2022-09-23T07:17:45.742Z,6.70
2022-09-23T07:18:54.558Z,6.90
2022-09-23T07:19:51.532Z,7.90
2022-09-23T07:20:45.443Z,6.40
2022-09-23T07:21:45.433Z,6.70
2022-09-23T07:22:45.413Z,6.50
2022-09-23T07:23:45.394Z,6.50
2022-09-23T07:24:45.714Z,6.90
2022-09-23T07:25:45.377Z,7.00
2022-09-23T07:26:45.854Z,6.30
2022-09-23T07:27:45.344Z,6.70
2022-09-23T07:28:45.326Z,6.90
2022-09-23T07:29:48.810Z,7.20
2022-09-23T07:30:56.327Z,7.60
2022-09-23T07:31:46.339Z,7.30
2022-09-23T07:32:48.994Z,6.80
2022-09-23T07:33:45.255Z,7.00
2022-09-23T07:34:45.246Z,6.70
2022-09-23T07:35:45.235Z,7.10
2022-09-23T07:36:45.226Z,6.40
2022-09-23T07:37:45.206Z,7.00
2022-09-23T07:38:45.774Z,7.30
2022-09-23T07:39:45.181Z,6.70
2022-09-23T07:40:45.215Z,6.90
2022-09-23T07:41:45.157Z,6.10
2022-09-23T07:42:45.136Z,6.60
2022-09-23T07:43:45.125Z,6.40
2022-09-23T07:44:45.108Z,6.50
2022-09-23T07:45:45.098Z,6.70
2022-09-23T07:46:45.121Z,6.60
2022-09-23T07:47:45.069Z,7.10
2022-09-23T07:48:45.060Z,6.50
2022-09-23T07:49:45.989Z,6.20
2022-09-23T07:50:45.029Z,6.50
2022-09-23T07:51:45.030Z,6.30
2022-09-23T07:52:45.010Z,6.00
2022-09-23T07:53:44.990Z,6.10
2022-09-23T07:54:44.979Z,6.10
2022-09-23T07:55:45.772Z,6.50
2022-09-23T07:56:44.960Z,6.10
2022-09-23T07:57:44.941Z,6.00
2022-09-23T07:58:44.920Z,5.90
2022-09-23T07:59:44.919Z,6.30
2022-09-23T08:00:44.892Z,6.10
2022-09-23T08:01:44.939Z,5.90
2022-09-23T08:02:47.452Z,6.30
2022-09-23T08:03:44.902Z,7.70
2022-09-23T08:04:44.842Z,6.00
2022-09-23T08:05:44.830Z,5.80
2022-09-23T08:06:44.822Z,5.10
2022-09-23T08:07:44.804Z,5.80
2022-09-23T08:08:44.785Z,6.00
2022-09-23T08:09:44.773Z,5.50
2022-09-23T08:10:44.754Z,5.40
2022-09-23T08:11:44.764Z,5.60
2022-09-23T08:12:44.735Z,5.70
2022-09-23T08:13:44.726Z,6.30
2022-09-23T08:14:44.709Z,5.70
2022-09-23T08:15:44.730Z,5.70
2022-09-23T08:16:44.849Z,6.00
2022-09-23T08:17:44.672Z,5.80
2022-09-23T08:18:45.606Z,5.50
2022-09-23T08:19:44.649Z,6.20
2022-09-23T08:20:47.070Z,6.20
2022-09-23T08:21:44.625Z,5.70
2022-09-23T08:22:44.596Z,5.80
2022-09-23T08:23:44.601Z,5.50
2022-09-23T08:24:44.575Z,5.40
2022-09-23T08:25:46.751Z,5.00
2022-09-23T08:26:44.559Z,5.70
2022-09-23T08:27:44.539Z,5.60
2022-09-23T08:28:45.198Z,5.60
2022-09-23T08:29:44.518Z,6.10
2022-09-23T08:30:44.610Z,5.60
2022-09-23T08:31:44.488Z,5.90
2022-09-23T08:32:44.466Z,5.50
2022-09-23T08:33:44.461Z,5.70
2022-09-23T08:34:44.439Z,5.60
2022-09-23T08:35:44.432Z,5.50
2022-09-23T08:36:44.419Z,5.80
2022-09-23T08:37:44.408Z,5.60
2022-09-23T08:38:44.391Z,5.40
2022-09-23T08:39:44.380Z,5.50
2022-09-23T08:40:44.395Z,5.90
2022-09-23T08:41:44.361Z,5.10
2022-09-23T08:42:44.472Z,6.20
2022-09-23T08:43:44.328Z,5.40
2022-09-23T08:44:45.112Z,5.80
2022-09-23T08:45:44.307Z,5.30
2022-09-23T08:46:44.272Z,5.10
2022-09-23T08:47:44.279Z,5.90
2022-09-23T08:48:44.255Z,5.30
2022-09-23T08:49:44.243Z,5.30
2022-09-23T08:53:45.981Z,5.00
2022-09-23T08:54:44.572Z,5.10
2022-09-23T08:55:45.272Z,4.90
2022-09-23T08:56:44.462Z,5.20
2022-09-23T08:57:46.008Z,5.00
2022-09-23T08:58:45.620Z,5.10
2022-09-23T08:59:44.413Z,5.40
2022-09-23T09:00:44.424Z,5.30
2022-09-23T09:01:44.433Z,4.80
2022-09-23T09:02:44.401Z,5.20
2022-09-23T09:03:44.365Z,5.00
2022-09-23T09:04:44.409Z,5.00
2022-09-23T09:05:53.750Z,4.90
2022-09-23T09:06:53.088Z,5.10
2022-09-23T09:07:45.315Z,5.00
2022-09-23T09:08:44.306Z,5.30
2022-09-23T09:09:44.296Z,4.80
2022-09-23T09:10:44.297Z,5.10
2022-09-23T09:11:48.374Z,5.20
2022-09-23T09:12:44.255Z,5.40
2022-09-23T09:13:44.249Z,5.10
2022-09-23T09:14:44.237Z,4.70
2022-09-23T09:15:45.034Z,5.60
2022-09-23T09:17:01.243Z,4.70
2022-09-23T09:17:45.430Z,4.50
2022-09-23T09:18:45.137Z,5.30
2022-09-23T09:19:44.169Z,4.90
2022-09-23T09:20:45.128Z,5.50
2022-09-23T09:21:44.140Z,5.50
2022-09-23T09:22:45.086Z,5.40
2022-09-23T09:23:44.121Z,5.10
2022-09-23T09:24:44.507Z,5.30
2022-09-23T09:25:44.102Z,5.10
2022-09-23T09:26:44.071Z,5.10
2022-09-23T09:27:44.061Z,5.30
2022-09-23T09:28:44.051Z,5.30
2022-09-23T09:29:44.093Z,5.10
2022-09-23T09:30:48.194Z,5.50
2022-09-23T09:31:44.006Z,5.60
2022-09-23T09:32:43.992Z,5.70
2022-09-23T09:33:43.973Z,5.50
2022-09-23T09:34:43.983Z,5.00
2022-09-23T09:35:44.894Z,5.80
2022-09-23T09:36:43.943Z,5.40
2022-09-23T09:37:43.924Z,5.20
2022-09-23T09:38:43.915Z,5.30
2022-09-23T09:39:43.960Z,5.20
2022-09-23T09:40:43.967Z,4.70
2022-09-23T09:41:43.875Z,5.20
2022-09-23T09:42:44.817Z,5.30
2022-09-23T09:43:44.354Z,4.70
2022-09-23T09:44:44.805Z,5.10
2022-09-23T09:45:43.828Z,5.00
2022-09-23T09:46:43.827Z,4.40
2022-09-23T09:47:44.772Z,5.10
2022-09-23T09:48:43.785Z,5.10
2022-09-23T09:49:43.778Z,5.40
2022-09-23T09:50:43.755Z,5.10
2022-09-23T09:51:43.759Z,5.10
2022-09-23T09:52:48.327Z,5.10
2022-09-23T09:53:43.656Z,5.00
2022-09-23T09:54:43.655Z,5.50
2022-09-23T09:55:43.634Z,4.80
2022-09-23T09:56:43.663Z,4.70
2022-09-23T09:57:44.563Z,4.80
2022-09-23T09:58:43.598Z,5.00
2022-09-23T09:59:43.595Z,4.60
2022-09-23T10:00:43.572Z,4.80
2022-09-23T10:01:43.599Z,5.00
2022-09-23T10:02:43.545Z,4.80
2022-09-23T10:03:43.525Z,4.80
2022-09-23T10:04:43.545Z,5.10
2022-09-23T10:05:43.515Z,4.60
2022-09-23T10:06:43.486Z,5.00
2022-09-23T10:07:43.469Z,4.30
2022-09-23T10:08:43.455Z,4.10
2022-09-23T10:09:44.395Z,4.10
2022-09-23T10:10:44.375Z,6.60
2022-09-23T10:11:44.376Z,3.80
2022-09-23T10:12:43.406Z,4.10
2022-09-23T10:13:43.392Z,4.30
2022-09-23T10:14:43.496Z,4.40
2022-09-23T10:15:44.918Z,3.90
2022-09-23T10:16:43.373Z,4.10
2022-09-23T10:17:44.293Z,4.30
2022-09-23T10:18:43.326Z,4.30
2022-09-23T10:19:43.317Z,4.00
2022-09-23T10:20:43.316Z,4.50
2022-09-23T10:21:43.278Z,4.30
2022-09-23T10:22:43.270Z,4.00
2022-09-23T10:23:43.251Z,3.90
2022-09-23T10:24:43.248Z,4.40
2022-09-23T10:25:43.230Z,3.80
2022-09-23T10:26:43.220Z,3.70
2022-09-23T10:27:43.200Z,3.90
2022-09-23T10:28:43.193Z,3.90
2022-09-23T10:29:43.190Z,4.30
2022-09-23T10:30:43.194Z,3.40
2022-09-23T10:31:43.150Z,3.90
2022-09-23T10:32:43.143Z,3.90
2022-09-23T10:33:43.124Z,3.60
2022-09-23T10:34:43.124Z,3.30
2022-09-23T10:35:44.555Z,3.70
2022-09-23T10:36:44.659Z,3.60
2022-09-23T10:37:43.078Z,4.00
2022-09-23T10:38:43.089Z,3.70
2022-09-23T10:39:43.057Z,3.20
2022-09-23T10:40:43.136Z,3.70
2022-09-23T10:41:43.020Z,3.70
2022-09-23T10:42:43.021Z,3.40
2022-09-23T10:43:43.000Z,3.60
2022-09-23T10:44:42.992Z,3.40
2022-09-23T10:45:43.415Z,3.40
2022-09-23T10:46:43.007Z,3.30
2022-09-23T10:47:42.944Z,3.20
2022-09-23T10:48:42.935Z,3.20
2022-09-23T10:49:42.927Z,3.00
2022-09-23T10:50:42.907Z,3.70
2022-09-23T10:51:42.898Z,3.20
2022-09-23T10:52:42.888Z,3.60
2022-09-23T10:53:42.873Z,3.10
2022-09-23T10:54:42.872Z,3.10
2022-09-23T10:55:42.840Z,3.00
2022-09-23T10:56:42.841Z,2.90
2022-09-23T10:57:42.852Z,2.70
2022-09-23T10:58:42.813Z,2.60
2022-09-23T10:59:42.804Z,3.00
2022-09-23T11:00:42.795Z,3.10
2022-09-23T11:01:43.780Z,3.00
2022-09-23T11:02:44.222Z,2.80
2022-09-23T11:03:43.696Z,3.00
2022-09-23T11:04:42.862Z,2.90
2022-09-23T11:05:42.721Z,3.00
2022-09-23T11:06:42.715Z,2.60
2022-09-23T11:07:42.691Z,3.30
2022-09-23T11:08:42.692Z,3.00
2022-09-23T11:09:42.680Z,2.70
2022-09-23T11:10:46.076Z,2.70
2022-09-23T11:11:42.643Z,3.10
2022-09-23T11:12:42.640Z,2.60
2022-09-23T11:13:42.629Z,4.10
2022-09-23T11:14:42.615Z,3.20
2022-09-23T11:15:42.591Z,2.80
2022-09-23T11:16:42.724Z,2.50
2022-09-23T11:17:42.705Z,3.00
2022-09-23T11:18:42.569Z,2.60
2022-09-23T11:19:45.540Z,2.60
2022-09-23T11:20:42.536Z,2.80
2022-09-23T11:21:42.520Z,2.30
2022-09-23T11:22:42.512Z,2.30
2022-09-23T11:23:42.493Z,2.30
2022-09-23T11:24:43.944Z,2.30
2022-09-23T11:25:42.465Z,2.00
2022-09-23T11:26:42.454Z,2.50
2022-09-23T11:27:42.435Z,2.40
2022-09-23T11:28:42.435Z,2.70
2022-09-23T11:29:42.431Z,2.60
2022-09-23T11:30:42.478Z,2.60
2022-09-23T11:31:42.387Z,2.50
2022-09-23T11:32:42.378Z,2.50
2022-09-23T11:33:42.427Z,2.30
2022-09-23T11:34:42.359Z,2.50
2022-09-23T11:35:42.341Z,2.20
2022-09-23T11:36:42.330Z,3.10
2022-09-23T11:37:42.311Z,2.40
2022-09-23T11:38:42.302Z,2.80
2022-09-23T11:39:42.304Z,2.50
2022-09-23T11:40:45.627Z,2.50
2022-09-23T11:41:42.271Z,2.50
2022-09-23T11:42:42.894Z,2.10
2022-09-23T11:43:42.244Z,2.60
2022-09-23T11:44:42.243Z,2.30
2022-09-23T11:45:42.250Z,2.50
2022-09-23T11:46:42.204Z,2.20
2022-09-23T11:47:43.857Z,2.20
2022-09-23T11:48:42.432Z,2.10
2022-09-23T11:49:42.167Z,2.40
2022-09-23T11:50:42.159Z,2.40
2022-09-23T11:51:42.130Z,2.20
2022-09-23T11:52:42.129Z,2.40
2022-09-23T11:53:42.113Z,2.10
2022-09-23T11:54:42.111Z,2.10
2022-09-23T11:55:53.167Z,2.30
2022-09-23T11:56:46.656Z,2.20
2022-09-23T11:57:48.936Z,2.00
2022-09-23T11:58:46.165Z,2.00
2022-09-23T11:59:43.083Z,1.70
2022-09-23T12:00:45.536Z,2.30
2022-09-23T12:01:45.515Z,2.00
2022-09-23T12:02:44.753Z,1.80
2022-09-23T12:03:44.720Z,2.20
2022-09-23T12:04:53.161Z,1.90
2022-09-23T12:05:43.038Z,2.20
2022-09-23T12:06:41.938Z,1.60
2022-09-23T12:07:41.928Z,1.40
2022-09-23T12:08:41.919Z,1.70
2022-09-23T12:09:57.800Z,2.10
2022-09-23T12:10:42.891Z,2.10
2022-09-23T12:11:41.880Z,2.00
2022-09-23T12:12:41.871Z,2.10
2022-09-23T12:13:41.850Z,1.70
2022-09-23T12:14:41.857Z,2.10
2022-09-23T12:15:41.831Z,2.10
2022-09-23T12:16:41.863Z,2.00
2022-09-23T12:17:41.803Z,1.90
2022-09-23T12:18:41.796Z,1.90
2022-09-23T12:19:41.789Z,2.00
2022-09-23T12:20:41.767Z,1.80
2022-09-23T12:21:57.137Z,2.00
2022-09-23T12:22:42.734Z,1.70
2022-09-23T12:23:41.725Z,1.60
2022-09-23T12:24:42.667Z,1.70
2022-09-23T12:25:41.697Z,1.70
2022-09-23T12:26:41.688Z,1.40
2022-09-23T12:27:41.672Z,1.70
2022-09-23T12:28:41.658Z,1.60
2022-09-23T12:29:41.659Z,1.80
2022-09-23T12:30:41.691Z,1.70
2022-09-23T12:31:43.078Z,1.90
2022-09-23T12:32:41.610Z,1.60
2022-09-23T12:33:41.593Z,1.80
2022-09-23T12:34:41.602Z,1.50
2022-09-23T12:35:41.574Z,1.60
2022-09-23T12:36:41.553Z,1.70
2022-09-23T12:37:41.556Z,1.60
2022-09-23T12:38:42.474Z,1.70
2022-09-23T12:39:41.534Z,1.50
2022-09-23T12:40:43.002Z,1.70
2022-09-23T12:41:41.502Z,1.70
2022-09-23T12:42:41.477Z,1.60
2022-09-23T12:43:41.466Z,1.60
2022-09-23T12:44:41.466Z,1.60
2022-09-23T12:45:41.516Z,1.50
2022-09-23T12:46:41.428Z,1.40
2022-09-23T12:47:41.418Z,1.40
2022-09-23T12:48:41.399Z,1.40
2022-09-23T12:49:41.399Z,1.40
2022-09-23T12:50:41.371Z,1.40
2022-09-23T12:51:41.371Z,1.70
2022-09-23T12:52:41.351Z,1.60
2022-09-23T12:53:41.341Z,1.70
2022-09-23T12:54:41.334Z,1.60
2022-09-23T12:55:41.320Z,1.70
2022-09-23T12:56:41.293Z,1.50
2022-09-23T12:57:41.293Z,1.60
2022-09-23T12:58:41.272Z,2.00
2022-09-23T12:59:41.274Z,1.30
2022-09-23T13:00:41.247Z,1.70
2022-09-23T13:01:41.350Z,1.30
2022-09-23T13:02:41.225Z,1.70
2022-09-23T13:03:41.208Z,1.90
2022-09-23T13:04:41.198Z,1.80
2022-09-23T13:05:41.187Z,1.70
2022-09-23T13:06:41.189Z,1.50
2022-09-23T13:07:41.154Z,1.60
2022-09-23T13:08:41.141Z,1.50
2022-09-23T13:09:41.142Z,1.60
2022-09-23T13:10:41.110Z,1.40
2022-09-23T13:11:41.150Z,1.60
2022-09-23T13:12:41.087Z,1.40
2022-09-23T13:13:41.091Z,1.70
2022-09-23T13:14:41.062Z,1.50
2022-09-23T13:15:41.051Z,1.80
2022-09-23T13:16:41.095Z,1.80
2022-09-23T13:17:41.029Z,1.80
2022-09-23T13:18:41.013Z,1.80